sensor_id;sensor_type;location;lat;lon;timestamp;pressure;altitude;pressure_sealevel;temperature;humidity
3780;BME280;1905;52.482;9.802;2024-02-23T00:00:03;97854.44;;;10.16;80.19
3780;BME280;1905;52.482;9.802;2024-02-23T00:02:32;97854.00;;;10.11;78.39
3780;BME280;1905;52.482;9.802;2024-02-23T00:05:00;97867.53;;;10.18;84.17
3780;BME280;1905;52.482;9.802;2024-02-23T00:07:29;97874.16;;;10.12;81.78
3780;BME280;1905;52.482;9.802;2024-02-23T00:09:57;97880.34;;;10.11;84.18
3780;BME280;1905;52.482;9.802;2024-02-23T00:12:26;97883.56;;;10.05;81.20
3780;BME280;1905;52.482;9.802;2024-02-23T00:14:54;97892.41;;;10.04;81.43
3780;BME280;1905;52.482;9.802;2024-02-23T00:17:24;97882.81;;;10.03;83.51
3780;BME280;1905;52.482;9.802;2024-02-23T00:19:52;97891.72;;;10.02;83.35
3780;BME280;1905;52.482;9.802;2024-02-23T00:22:21;97898.47;;;9.95;79.48
3780;BME280;1905;52.482;9.802;2024-02-23T00:24:49;97902.53;;;9.99;80.98
3780;BME280;1905;52.482;9.802;2024-02-23T00:27:17;97916.75;;;9.87;77.38
3780;BME280;1905;52.482;9.802;2024-02-23T00:29:45;97904.56;;;9.86;79.10
3780;BME280;1905;52.482;9.802;2024-02-23T00:32:14;97919.53;;;9.86;81.39
3780;BME280;1905;52.482;9.802;2024-02-23T00:34:43;97899.34;;;9.75;77.79
3780;BME280;1905;52.482;9.802;2024-02-23T00:37:12;97921.13;;;9.77;78.85
3780;BME280;1905;52.482;9.802;2024-02-23T00:39:40;97931.09;;;9.74;78.01
3780;BME280;1905;52.482;9.802;2024-02-23T00:42:08;97932.78;;;9.75;80.92
3780;BME280;1905;52.482;9.802;2024-02-23T00:44:36;97927.91;;;9.70;78.96
3780;BME280;1905;52.482;9.802;2024-02-23T00:47:05;97944.91;;;9.66;77.62
3780;BME280;1905;52.482;9.802;2024-02-23T00:49:33;97941.59;;;9.64;78.37
3780;BME280;1905;52.482;9.802;2024-02-23T00:52:03;97933.94;;;9.61;77.42
3780;BME280;1905;52.482;9.802;2024-02-23T00:54:31;97955.19;;;9.69;81.75
3780;BME280;1905;52.482;9.802;2024-02-23T00:56:59;97950.19;;;9.66;81.45
3780;BME280;1905;52.482;9.802;2024-02-23T00:59:28;97948.91;;;9.61;78.86
3780;BME280;1905;52.482;9.802;2024-02-23T01:01:56;97949.50;;;9.64;81.69
3780;BME280;1905;52.482;9.802;2024-02-23T01:04:24;97952.63;;;9.58;77.94
3780;BME280;1905;52.482;9.802;2024-02-23T01:06:53;97960.38;;;9.59;80.00
3780;BME280;1905;52.482;9.802;2024-02-23T01:09:22;97968.03;;;9.63;81.61
3780;BME280;1905;52.482;9.802;2024-02-23T01:11:50;97966.31;;;9.52;78.21
3780;BME280;1905;52.482;9.802;2024-02-23T01:14:19;97958.41;;;9.52;78.10
3780;BME280;1905;52.482;9.802;2024-02-23T01:16:47;97970.63;;;9.53;79.91
3780;BME280;1905;52.482;9.802;2024-02-23T01:19:16;97995.28;;;9.52;78.63
3780;BME280;1905;52.482;9.802;2024-02-23T01:21:46;97975.88;;;9.53;81.23
3780;BME280;1905;52.482;9.802;2024-02-23T01:24:13;98002.03;;;9.45;77.04
3780;BME280;1905;52.482;9.802;2024-02-23T01:26:43;98013.50;;;9.44;79.38
3780;BME280;1905;52.482;9.802;2024-02-23T01:29:11;98031.47;;;9.50;81.92
3780;BME280;1905;52.482;9.802;2024-02-23T01:31:39;98056.00;;;9.50;82.27
3780;BME280;1905;52.482;9.802;2024-02-23T01:34:08;98080.91;;;9.46;81.12
3780;BME280;1905;52.482;9.802;2024-02-23T01:36:36;98105.84;;;9.42;81.18
3780;BME280;1905;52.482;9.802;2024-02-23T01:39:06;98100.94;;;9.38;82.59
3780;BME280;1905;52.482;9.802;2024-02-23T01:41:35;98106.56;;;9.33;82.74
3780;BME280;1905;52.482;9.802;2024-02-23T01:44:04;98109.59;;;9.29;82.81
3780;BME280;1905;52.482;9.802;2024-02-23T01:46:33;98121.06;;;9.28;83.05
3780;BME280;1905;52.482;9.802;2024-02-23T01:49:02;98143.09;;;9.27;82.64
3780;BME280;1905;52.482;9.802;2024-02-23T01:51:32;98158.88;;;9.27;84.85
3780;BME280;1905;52.482;9.802;2024-02-23T01:54:01;98178.53;;;9.23;85.15
3780;BME280;1905;52.482;9.802;2024-02-23T01:56:30;98185.72;;;9.21;85.63
3780;BME280;1905;52.482;9.802;2024-02-23T01:58:59;98199.81;;;9.09;85.79
3780;BME280;1905;52.482;9.802;2024-02-23T02:01:32;98213.84;;;9.09;87.20
3780;BME280;1905;52.482;9.802;2024-02-23T02:04:00;98216.81;;;9.05;87.14
3780;BME280;1905;52.482;9.802;2024-02-23T02:06:29;98218.72;;;9.03;86.93
3780;BME280;1905;52.482;9.802;2024-02-23T02:08:58;98222.91;;;9.05;87.61
3780;BME280;1905;52.482;9.802;2024-02-23T02:11:26;98250.53;;;8.99;88.08
3780;BME280;1905;52.482;9.802;2024-02-23T02:13:55;98258.44;;;8.88;87.52
3780;BME280;1905;52.482;9.802;2024-02-23T02:16:23;98288.78;;;8.81;88.20
3780;BME280;1905;52.482;9.802;2024-02-23T02:18:53;98262.47;;;8.81;88.66
3780;BME280;1905;52.482;9.802;2024-02-23T02:21:21;98289.75;;;8.80;87.39
3780;BME280;1905;52.482;9.802;2024-02-23T02:23:52;98299.66;;;8.77;87.56
3780;BME280;1905;52.482;9.802;2024-02-23T02:26:21;98322.69;;;8.62;86.51
3780;BME280;1905;52.482;9.802;2024-02-23T02:28:50;98314.34;;;8.68;88.33
3780;BME280;1905;52.482;9.802;2024-02-23T02:31:19;98314.13;;;8.71;88.03
3780;BME280;1905;52.482;9.802;2024-02-23T02:33:47;98326.56;;;8.69;88.16
3780;BME280;1905;52.482;9.802;2024-02-23T02:36:17;98336.41;;;8.55;86.83
3780;BME280;1905;52.482;9.802;2024-02-23T02:38:45;98339.53;;;8.60;88.38
3780;BME280;1905;52.482;9.802;2024-02-23T02:41:13;98345.06;;;8.44;86.48
3780;BME280;1905;52.482;9.802;2024-02-23T02:43:42;98339.38;;;8.50;88.00
3780;BME280;1905;52.482;9.802;2024-02-23T02:46:11;98349.50;;;8.44;88.00
3780;BME280;1905;52.482;9.802;2024-02-23T02:48:39;98361.19;;;8.40;87.53
3780;BME280;1905;52.482;9.802;2024-02-23T02:51:07;98363.91;;;8.38;86.51
3780;BME280;1905;52.482;9.802;2024-02-23T02:53:36;98373.59;;;8.37;87.17
3780;BME280;1905;52.482;9.802;2024-02-23T02:56:05;98379.19;;;8.33;87.22
3780;BME280;1905;52.482;9.802;2024-02-23T02:58:34;98384.34;;;8.22;86.58
3780;BME280;1905;52.482;9.802;2024-02-23T03:01:03;98384.56;;;8.19;87.72
3780;BME280;1905;52.482;9.802;2024-02-23T03:03:31;98372.75;;;8.24;87.79
3780;BME280;1905;52.482;9.802;2024-02-23T03:05:59;98388.16;;;8.18;87.30
3780;BME280;1905;52.482;9.802;2024-02-23T03:08:28;98395.41;;;8.14;87.30
3780;BME280;1905;52.482;9.802;2024-02-23T03:10:58;98401.63;;;8.01;85.90
3780;BME280;1905;52.482;9.802;2024-02-23T03:13:26;98401.72;;;7.99;86.28
3780;BME280;1905;52.482;9.802;2024-02-23T03:15:55;98399.72;;;8.03;87.94
3780;BME280;1905;52.482;9.802;2024-02-23T03:18:23;98411.50;;;7.97;87.82
3780;BME280;1905;52.482;9.802;2024-02-23T03:20:53;98430.44;;;7.90;86.97
3780;BME280;1905;52.482;9.802;2024-02-23T03:23:22;98430.84;;;7.84;85.89
3780;BME280;1905;52.482;9.802;2024-02-23T03:25:58;98428.13;;;7.85;87.69
3780;BME280;1905;52.482;9.802;2024-02-23T03:28:26;98434.66;;;7.79;86.58
3780;BME280;1905;52.482;9.802;2024-02-23T03:30:54;98447.47;;;7.71;85.57
3780;BME280;1905;52.482;9.802;2024-02-23T03:33:22;98444.00;;;7.71;86.40
3780;BME280;1905;52.482;9.802;2024-02-23T03:35:50;98449.13;;;7.72;86.54
3780;BME280;1905;52.482;9.802;2024-02-23T03:38:19;98440.53;;;7.70;87.27
3780;BME280;1905;52.482;9.802;2024-02-23T03:40:47;98448.69;;;7.53;84.47
3780;BME280;1905;52.482;9.802;2024-02-23T03:43:16;98460.28;;;7.63;87.30
3780;BME280;1905;52.482;9.802;2024-02-23T03:45:45;98456.69;;;7.64;87.92
3780;BME280;1905;52.482;9.802;2024-02-23T03:48:14;98467.41;;;7.61;87.30
3780;BME280;1905;52.482;9.802;2024-02-23T03:50:42;98483.16;;;7.61;87.69
3780;BME280;1905;52.482;9.802;2024-02-23T03:53:10;98484.00;;;7.62;87.61
3780;BME280;1905;52.482;9.802;2024-02-23T03:55:39;98486.75;;;7.60;87.39
3780;BME280;1905;52.482;9.802;2024-02-23T03:58:07;98485.06;;;7.59;87.24
3780;BME280;1905;52.482;9.802;2024-02-23T04:00:37;98493.88;;;7.58;87.52
3780;BME280;1905;52.482;9.802;2024-02-23T04:03:05;98503.09;;;7.51;86.37
3780;BME280;1905;52.482;9.802;2024-02-23T04:05:34;98497.31;;;7.46;86.50
3780;BME280;1905;52.482;9.802;2024-02-23T04:08:03;98514.00;;;7.45;87.91
3780;BME280;1905;52.482;9.802;2024-02-23T04:10:32;98515.06;;;7.43;87.23
3780;BME280;1905;52.482;9.802;2024-02-23T04:13:00;98515.91;;;7.43;88.03
3780;BME280;1905;52.482;9.802;2024-02-23T04:15:29;98526.59;;;7.40;88.31
3780;BME280;1905;52.482;9.802;2024-02-23T04:17:59;98535.41;;;7.39;87.63
3780;BME280;1905;52.482;9.802;2024-02-23T04:20:28;98530.97;;;7.27;85.76
3780;BME280;1905;52.482;9.802;2024-02-23T04:22:57;98532.44;;;7.31;87.00
3780;BME280;1905;52.482;9.802;2024-02-23T04:25:25;98542.00;;;7.32;87.13
3780;BME280;1905;52.482;9.802;2024-02-23T04:27:53;98536.22;;;7.27;86.85
3780;BME280;1905;52.482;9.802;2024-02-23T04:30:22;98548.44;;;7.28;87.09
3780;BME280;1905;52.482;9.802;2024-02-23T04:32:50;98539.78;;;7.26;86.22
3780;BME280;1905;52.482;9.802;2024-02-23T04:35:20;98541.66;;;7.24;87.97
3780;BME280;1905;52.482;9.802;2024-02-23T04:37:48;98549.00;;;7.19;85.46
3780;BME280;1905;52.482;9.802;2024-02-23T04:40:17;98543.56;;;7.22;87.66
3780;BME280;1905;52.482;9.802;2024-02-23T04:42:45;98555.72;;;7.23;87.55
3780;BME280;1905;52.482;9.802;2024-02-23T04:45:14;98555.09;;;7.19;86.28
3780;BME280;1905;52.482;9.802;2024-02-23T04:47:42;98552.38;;;7.21;86.35
3780;BME280;1905;52.482;9.802;2024-02-23T04:50:14;98559.31;;;7.22;87.09
3780;BME280;1905;52.482;9.802;2024-02-23T04:52:44;98561.81;;;7.24;86.35
3780;BME280;1905;52.482;9.802;2024-02-23T04:55:13;98566.91;;;7.12;85.17
3780;BME280;1905;52.482;9.802;2024-02-23T04:57:41;98571.03;;;7.16;87.07
3780;BME280;1905;52.482;9.802;2024-02-23T05:00:11;98575.25;;;7.19;86.81
3780;BME280;1905;52.482;9.802;2024-02-23T05:02:39;98583.22;;;7.17;87.36
3780;BME280;1905;52.482;9.802;2024-02-23T05:05:07;98595.50;;;7.17;86.73
3780;BME280;1905;52.482;9.802;2024-02-23T05:07:35;98579.41;;;7.09;84.87
3780;BME280;1905;52.482;9.802;2024-02-23T05:10:06;98584.47;;;7.12;87.25
3780;BME280;1905;52.482;9.802;2024-02-23T05:12:35;98590.72;;;7.09;86.50
3780;BME280;1905;52.482;9.802;2024-02-23T05:15:04;98605.84;;;7.06;86.12
3780;BME280;1905;52.482;9.802;2024-02-23T05:17:32;98601.34;;;7.08;86.79
3780;BME280;1905;52.482;9.802;2024-02-23T05:20:02;98605.84;;;7.06;86.85
3780;BME280;1905;52.482;9.802;2024-02-23T05:22:34;98609.59;;;7.02;85.90
3780;BME280;1905;52.482;9.802;2024-02-23T05:25:03;98613.72;;;7.06;87.31
3780;BME280;1905;52.482;9.802;2024-02-23T05:27:34;98621.84;;;7.01;86.51
3780;BME280;1905;52.482;9.802;2024-02-23T05:30:03;98627.03;;;7.03;86.59
3780;BME280;1905;52.482;9.802;2024-02-23T05:32:31;98639.97;;;6.92;84.88
3780;BME280;1905;52.482;9.802;2024-02-23T05:35:01;98641.44;;;6.96;86.49
3780;BME280;1905;52.482;9.802;2024-02-23T05:37:30;98633.19;;;6.88;83.42
3780;BME280;1905;52.482;9.802;2024-02-23T05:39:58;98649.97;;;6.85;85.83
3780;BME280;1905;52.482;9.802;2024-02-23T05:42:31;98636.13;;;6.83;81.95
3780;BME280;1905;52.482;9.802;2024-02-23T05:45:06;98641.38;;;6.83;84.68
3780;BME280;1905;52.482;9.802;2024-02-23T05:47:36;98644.28;;;6.79;83.80
3780;BME280;1905;52.482;9.802;2024-02-23T05:50:05;98651.00;;;6.83;84.66
3780;BME280;1905;52.482;9.802;2024-02-23T05:52:33;98652.91;;;6.81;84.35
3780;BME280;1905;52.482;9.802;2024-02-23T05:55:03;98638.84;;;6.82;85.58
3780;BME280;1905;52.482;9.802;2024-02-23T05:57:32;98642.69;;;6.76;85.28
3780;BME280;1905;52.482;9.802;2024-02-23T06:00:00;98660.03;;;6.79;84.40
3780;BME280;1905;52.482;9.802;2024-02-23T06:02:38;98655.69;;;6.78;84.53
3780;BME280;1905;52.482;9.802;2024-02-23T06:05:07;98645.88;;;6.81;85.31
3780;BME280;1905;52.482;9.802;2024-02-23T06:07:36;98653.44;;;6.72;84.54
3780;BME280;1905;52.482;9.802;2024-02-23T06:10:06;98648.97;;;6.74;84.90
3780;BME280;1905;52.482;9.802;2024-02-23T06:12:34;98657.41;;;6.79;84.37
3780;BME280;1905;52.482;9.802;2024-02-23T06:15:03;98665.63;;;6.73;83.18
3780;BME280;1905;52.482;9.802;2024-02-23T06:17:31;98670.88;;;6.73;84.19
3780;BME280;1905;52.482;9.802;2024-02-23T06:20:02;98672.75;;;6.71;84.44
3780;BME280;1905;52.482;9.802;2024-02-23T06:22:33;98675.84;;;6.77;86.02
3780;BME280;1905;52.482;9.802;2024-02-23T06:25:02;98679.66;;;6.72;84.34
3780;BME280;1905;52.482;9.802;2024-02-23T06:27:31;98684.28;;;6.68;84.44
3780;BME280;1905;52.482;9.802;2024-02-23T06:30:00;98690.16;;;6.72;83.79
3780;BME280;1905;52.482;9.802;2024-02-23T06:32:29;98677.81;;;6.74;83.93
3780;BME280;1905;52.482;9.802;2024-02-23T06:34:57;98695.59;;;6.69;84.57
3780;BME280;1905;52.482;9.802;2024-02-23T06:37:29;98686.78;;;6.70;85.05
3780;BME280;1905;52.482;9.802;2024-02-23T06:39:58;98706.38;;;6.64;82.77
3780;BME280;1905;52.482;9.802;2024-02-23T06:42:25;98703.66;;;6.66;84.21
3780;BME280;1905;52.482;9.802;2024-02-23T06:44:54;98701.22;;;6.63;83.45
3780;BME280;1905;52.482;9.802;2024-02-23T06:47:22;98704.59;;;6.65;84.77
3780;BME280;1905;52.482;9.802;2024-02-23T06:49:52;98709.84;;;6.65;83.83
3780;BME280;1905;52.482;9.802;2024-02-23T06:52:20;98715.09;;;6.65;84.30
3780;BME280;1905;52.482;9.802;2024-02-23T06:54:51;98723.69;;;6.67;85.89
3780;BME280;1905;52.482;9.802;2024-02-23T06:57:19;98728.09;;;6.66;83.72
3780;BME280;1905;52.482;9.802;2024-02-23T06:59:48;98721.19;;;6.65;84.49
3780;BME280;1905;52.482;9.802;2024-02-23T07:02:16;98730.81;;;6.65;84.82
3780;BME280;1905;52.482;9.802;2024-02-23T07:04:44;98734.28;;;6.65;82.75
3780;BME280;1905;52.482;9.802;2024-02-23T07:07:12;98749.91;;;6.67;84.14
3780;BME280;1905;52.482;9.802;2024-02-23T07:09:40;98749.91;;;6.67;83.39
3780;BME280;1905;52.482;9.802;2024-02-23T07:12:10;98751.63;;;6.68;84.14
3780;BME280;1905;52.482;9.802;2024-02-23T07:14:40;98757.53;;;6.71;83.98
3780;BME280;1905;52.482;9.802;2024-02-23T07:17:09;98769.03;;;6.69;84.60
3780;BME280;1905;52.482;9.802;2024-02-23T07:19:37;98766.34;;;6.70;84.73
3780;BME280;1905;52.482;9.802;2024-02-23T07:22:05;98774.09;;;6.72;85.22
3780;BME280;1905;52.482;9.802;2024-02-23T07:24:34;98777.50;;;6.74;84.34
3780;BME280;1905;52.482;9.802;2024-02-23T07:27:03;98784.59;;;6.72;83.21
3780;BME280;1905;52.482;9.802;2024-02-23T07:29:33;98774.66;;;6.77;82.53
3780;BME280;1905;52.482;9.802;2024-02-23T07:32:01;98780.00;;;6.75;82.65
3780;BME280;1905;52.482;9.802;2024-02-23T07:34:31;98776.94;;;6.83;84.19
3780;BME280;1905;52.482;9.802;2024-02-23T07:36:59;98771.69;;;6.83;82.03
3780;BME280;1905;52.482;9.802;2024-02-23T07:39:28;98786.22;;;6.88;83.58
3780;BME280;1905;52.482;9.802;2024-02-23T07:41:56;98784.81;;;6.83;82.77
3780;BME280;1905;52.482;9.802;2024-02-23T07:44:25;98791.66;;;6.85;84.70
3780;BME280;1905;52.482;9.802;2024-02-23T07:46:55;98797.75;;;6.86;83.38
3780;BME280;1905;52.482;9.802;2024-02-23T07:49:23;98802.13;;;6.85;82.26
3780;BME280;1905;52.482;9.802;2024-02-23T07:51:52;98793.84;;;6.93;83.18
3780;BME280;1905;52.482;9.802;2024-02-23T07:54:20;98800.75;;;6.94;82.98
3780;BME280;1905;52.482;9.802;2024-02-23T07:56:49;98807.53;;;6.98;84.27
3780;BME280;1905;52.482;9.802;2024-02-23T07:59:17;98811.75;;;7.00;82.00
3780;BME280;1905;52.482;9.802;2024-02-23T08:01:46;98816.16;;;7.00;81.11
3780;BME280;1905;52.482;9.802;2024-02-23T08:04:16;98826.63;;;7.00;80.59
3780;BME280;1905;52.482;9.802;2024-02-23T08:06:45;98830.97;;;7.01;80.31
3780;BME280;1905;52.482;9.802;2024-02-23T08:09:13;98832.56;;;7.03;82.60
3780;BME280;1905;52.482;9.802;2024-02-23T08:11:41;98836.78;;;7.06;82.04
3780;BME280;1905;52.482;9.802;2024-02-23T08:14:10;98848.78;;;7.10;84.26
3780;BME280;1905;52.482;9.802;2024-02-23T08:16:38;98847.09;;;7.09;80.84
3780;BME280;1905;52.482;9.802;2024-02-23T08:19:07;98854.69;;;7.13;81.01
3780;BME280;1905;52.482;9.802;2024-02-23T08:21:38;98850.13;;;7.17;80.61
3780;BME280;1905;52.482;9.802;2024-02-23T08:24:07;98853.50;;;7.19;80.99
3780;BME280;1905;52.482;9.802;2024-02-23T08:26:35;98852.63;;;7.18;79.94
3780;BME280;1905;52.482;9.802;2024-02-23T08:29:05;98855.75;;;7.25;81.53
3780;BME280;1905;52.482;9.802;2024-02-23T08:31:33;98852.28;;;7.25;80.27
3780;BME280;1905;52.482;9.802;2024-02-23T08:34:02;98857.34;;;7.28;81.78
3780;BME280;1905;52.482;9.802;2024-02-23T08:36:31;98853.78;;;7.29;79.87
3780;BME280;1905;52.482;9.802;2024-02-23T08:39:01;98854.44;;;7.32;80.30
3780;BME280;1905;52.482;9.802;2024-02-23T08:41:30;98852.19;;;7.40;82.52
3780;BME280;1905;52.482;9.802;2024-02-23T08:43:58;98850.44;;;7.41;79.65
3780;BME280;1905;52.482;9.802;2024-02-23T08:46:27;98845.84;;;7.44;80.36
3780;BME280;1905;52.482;9.802;2024-02-23T08:48:55;98843.84;;;7.48;78.64
3780;BME280;1905;52.482;9.802;2024-02-23T08:51:23;98851.56;;;7.51;80.25
3780;BME280;1905;52.482;9.802;2024-02-23T08:53:51;98852.28;;;7.53;80.65
3780;BME280;1905;52.482;9.802;2024-02-23T08:56:25;98856.31;;;7.58;80.10
3780;BME280;1905;52.482;9.802;2024-02-23T08:58:53;98858.03;;;7.59;78.52
3780;BME280;1905;52.482;9.802;2024-02-23T09:01:21;98864.03;;;7.61;78.98
3780;BME280;1905;52.482;9.802;2024-02-23T09:03:50;98866.66;;;7.61;80.06
3780;BME280;1905;52.482;9.802;2024-02-23T09:06:18;98877.81;;;7.65;78.41
3780;BME280;1905;52.482;9.802;2024-02-23T09:08:47;98878.69;;;7.65;79.02
3780;BME280;1905;52.482;9.802;2024-02-23T09:11:15;98876.78;;;7.67;77.88
3780;BME280;1905;52.482;9.802;2024-02-23T09:13:45;98880.16;;;7.69;80.20
3780;BME280;1905;52.482;9.802;2024-02-23T09:16:13;98883.38;;;7.74;78.30
3780;BME280;1905;52.482;9.802;2024-02-23T09:18:42;98880.47;;;7.79;77.50
3780;BME280;1905;52.482;9.802;2024-02-23T09:21:10;98873.31;;;7.81;77.19
3780;BME280;1905;52.482;9.802;2024-02-23T09:23:39;98878.50;;;7.83;80.07
3780;BME280;1905;52.482;9.802;2024-02-23T09:26:09;98893.31;;;7.84;80.08
3780;BME280;1905;52.482;9.802;2024-02-23T09:28:38;98895.88;;;7.85;78.68
3780;BME280;1905;52.482;9.802;2024-02-23T09:31:09;98902.91;;;7.85;77.64
3780;BME280;1905;52.482;9.802;2024-02-23T09:33:38;98906.16;;;7.88;76.47
3780;BME280;1905;52.482;9.802;2024-02-23T09:36:07;98913.97;;;7.90;77.42
3780;BME280;1905;52.482;9.802;2024-02-23T09:38:37;98917.53;;;7.89;80.82
3780;BME280;1905;52.482;9.802;2024-02-23T09:41:14;98922.59;;;7.92;78.14
3780;BME280;1905;52.482;9.802;2024-02-23T09:43:44;98920.72;;;7.94;80.17
3780;BME280;1905;52.482;9.802;2024-02-23T09:46:15;98920.53;;;7.97;77.31
3780;BME280;1905;52.482;9.802;2024-02-23T09:48:44;98925.59;;;8.00;76.84
3780;BME280;1905;52.482;9.802;2024-02-23T09:51:13;98937.81;;;8.01;76.72
3780;BME280;1905;52.482;9.802;2024-02-23T09:53:42;98943.06;;;8.01;77.92
3780;BME280;1905;52.482;9.802;2024-02-23T09:56:11;98946.25;;;8.06;77.09
3780;BME280;1905;52.482;9.802;2024-02-23T09:58:44;98932.00;;;8.10;78.35
3780;BME280;1905;52.482;9.802;2024-02-23T10:01:19;98940.81;;;8.09;76.36
3780;BME280;1905;52.482;9.802;2024-02-23T10:03:50;98938.94;;;8.11;77.86
3780;BME280;1905;52.482;9.802;2024-02-23T10:06:18;98944.00;;;8.14;75.80
3780;BME280;1905;52.482;9.802;2024-02-23T10:08:46;98950.97;;;8.15;76.08
3780;BME280;1905;52.482;9.802;2024-02-23T10:11:17;98940.25;;;8.18;77.09
3780;BME280;1905;52.482;9.802;2024-02-23T10:13:47;98941.75;;;8.22;78.59
3780;BME280;1905;52.482;9.802;2024-02-23T10:16:18;98944.28;;;8.23;76.68
3780;BME280;1905;52.482;9.802;2024-02-23T10:18:47;98950.22;;;8.27;75.82
3780;BME280;1905;52.482;9.802;2024-02-23T10:21:16;98956.03;;;8.32;76.29
3780;BME280;1905;52.482;9.802;2024-02-23T10:23:45;98951.31;;;8.37;75.82
3780;BME280;1905;52.482;9.802;2024-02-23T10:26:14;98959.78;;;8.42;75.54
3780;BME280;1905;52.482;9.802;2024-02-23T10:28:46;98957.72;;;8.47;75.62
3780;BME280;1905;52.482;9.802;2024-02-23T10:31:14;98950.47;;;8.51;75.93
3780;BME280;1905;52.482;9.802;2024-02-23T10:33:44;98953.38;;;8.60;73.97
3780;BME280;1905;52.482;9.802;2024-02-23T10:36:15;98940.75;;;8.65;75.57
3780;BME280;1905;52.482;9.802;2024-02-23T10:38:45;98943.09;;;8.70;78.58
3780;BME280;1905;52.482;9.802;2024-02-23T10:41:17;98951.56;;;8.75;78.36
3780;BME280;1905;52.482;9.802;2024-02-23T10:43:47;98944.47;;;8.75;76.84
3780;BME280;1905;52.482;9.802;2024-02-23T10:46:16;98937.06;;;8.82;75.92
3780;BME280;1905;52.482;9.802;2024-02-23T10:48:48;98944.38;;;8.91;77.56
3780;BME280;1905;52.482;9.802;2024-02-23T10:51:17;98937.28;;;8.91;75.43
3780;BME280;1905;52.482;9.802;2024-02-23T10:53:48;98928.38;;;8.94;74.66
3780;BME280;1905;52.482;9.802;2024-02-23T10:56:17;98928.47;;;8.92;73.49
3780;BME280;1905;52.482;9.802;2024-02-23T10:58:46;98920.47;;;8.94;72.69
3780;BME280;1905;52.482;9.802;2024-02-23T11:01:19;98917.53;;;8.98;74.00
3780;BME280;1905;52.482;9.802;2024-02-23T11:03:53;98907.94;;;8.97;72.55
3780;BME280;1905;52.482;9.802;2024-02-23T11:06:27;98917.34;;;9.02;75.62
3780;BME280;1905;52.482;9.802;2024-02-23T11:09:05;98925.22;;;9.02;72.92
3780;BME280;1905;52.482;9.802;2024-02-23T11:11:36;98918.06;;;9.04;71.89
3780;BME280;1905;52.482;9.802;2024-02-23T11:14:07;98914.69;;;9.02;72.03
3780;BME280;1905;52.482;9.802;2024-02-23T11:16:38;98928.06;;;8.98;71.84
3780;BME280;1905;52.482;9.802;2024-02-23T11:19:09;98921.28;;;8.94;72.12
3780;BME280;1905;52.482;9.802;2024-02-23T11:21:39;98922.16;;;8.95;73.25
3780;BME280;1905;52.482;9.802;2024-02-23T11:24:08;98928.25;;;8.95;72.67
3780;BME280;1905;52.482;9.802;2024-02-23T11:26:37;98907.94;;;8.97;72.30
3780;BME280;1905;52.482;9.802;2024-02-23T11:29:12;98904.38;;;8.98;73.26
3780;BME280;1905;52.482;9.802;2024-02-23T11:31:46;98911.41;;;8.98;73.24
3780;BME280;1905;52.482;9.802;2024-02-23T11:34:21;98894.78;;;8.97;74.20
3780;BME280;1905;52.482;9.802;2024-02-23T11:36:52;98906.81;;;9.02;72.69
3780;BME280;1905;52.482;9.802;2024-02-23T11:39:21;98899.63;;;9.04;73.62
3780;BME280;1905;52.482;9.802;2024-02-23T11:41:50;98899.63;;;9.04;74.40
3780;BME280;1905;52.482;9.802;2024-02-23T11:44:18;98894.56;;;9.01;72.63
3780;BME280;1905;52.482;9.802;2024-02-23T11:46:47;98902.59;;;8.99;70.78
3780;BME280;1905;52.482;9.802;2024-02-23T11:49:17;98901.94;;;8.95;71.93
3780;BME280;1905;52.482;9.802;2024-02-23T11:51:46;98900.03;;;8.97;71.85
3780;BME280;1905;52.482;9.802;2024-02-23T11:54:14;98896.66;;;8.95;72.52
3780;BME280;1905;52.482;9.802;2024-02-23T11:56:46;98909.09;;;8.93;70.68
3780;BME280;1905;52.482;9.802;2024-02-23T11:59:16;98903.19;;;8.90;70.11
3780;BME280;1905;52.482;9.802;2024-02-23T12:01:46;98890.00;;;8.90;70.88
3780;BME280;1905;52.482;9.802;2024-02-23T12:04:17;98901.09;;;8.95;73.35
3780;BME280;1905;52.482;9.802;2024-02-23T12:06:47;98892.53;;;8.91;71.28
3780;BME280;1905;52.482;9.802;2024-02-23T12:09:15;98890.00;;;8.90;70.84
3780;BME280;1905;52.482;9.802;2024-02-23T12:11:47;98891.72;;;8.91;70.90
3780;BME280;1905;52.482;9.802;2024-02-23T12:14:42;98899.63;;;8.91;71.69
3780;BME280;1905;52.482;9.802;2024-02-23T12:17:10;98889.69;;;8.94;72.36
3780;BME280;1905;52.482;9.802;2024-02-23T12:19:41;98882.56;;;8.96;71.93
3780;BME280;1905;52.482;9.802;2024-02-23T12:22:11;98891.09;;;9.00;69.63
3780;BME280;1905;52.482;9.802;2024-02-23T12:24:40;98900.03;;;8.97;70.04
3780;BME280;1905;52.482;9.802;2024-02-23T12:27:16;98887.84;;;8.96;72.57
3780;BME280;1905;52.482;9.802;2024-02-23T12:29:51;98896.66;;;8.95;72.65
3780;BME280;1905;52.482;9.802;2024-02-23T12:32:20;98884.25;;;8.97;70.85
3780;BME280;1905;52.482;9.802;2024-02-23T12:34:52;98891.00;;;9.02;71.89
3780;BME280;1905;52.482;9.802;2024-02-23T12:37:21;98890.81;;;9.05;70.17
3780;BME280;1905;52.482;9.802;2024-02-23T12:39:50;98883.00;;;9.03;69.70
3780;BME280;1905;52.482;9.802;2024-02-23T12:42:18;98891.63;;;9.05;71.92
3780;BME280;1905;52.482;9.802;2024-02-23T12:44:47;98889.75;;;9.07;71.65
3780;BME280;1905;52.482;9.802;2024-02-23T12:47:16;98900.19;;;9.09;71.37
3780;BME280;1905;52.482;9.802;2024-02-23T12:49:50;98891.22;;;9.11;73.23
3780;BME280;1905;52.482;9.802;2024-02-23T12:52:20;98902.41;;;9.15;73.81
3780;BME280;1905;52.482;9.802;2024-02-23T12:54:48;98912.94;;;9.15;71.54
3780;BME280;1905;52.482;9.802;2024-02-23T12:57:18;98910.84;;;9.20;70.39
3780;BME280;1905;52.482;9.802;2024-02-23T12:59:47;98914.31;;;9.20;71.33
3780;BME280;1905;52.482;9.802;2024-02-23T13:02:16;98922.88;;;9.24;70.64
3780;BME280;1905;52.482;9.802;2024-02-23T13:04:44;98915.91;;;9.23;72.35
3780;BME280;1905;52.482;9.802;2024-02-23T13:07:17;98926.97;;;9.28;72.11
3780;BME280;1905;52.482;9.802;2024-02-23T13:09:47;98936.59;;;9.29;72.37
3780;BME280;1905;52.482;9.802;2024-02-23T13:12:15;98917.19;;;9.30;70.21
3780;BME280;1905;52.482;9.802;2024-02-23T13:14:44;98926.66;;;9.32;70.37
3780;BME280;1905;52.482;9.802;2024-02-23T13:17:13;98922.03;;;9.36;71.81
3780;BME280;1905;52.482;9.802;2024-02-23T13:19:41;98922.56;;;9.41;71.56
3780;BME280;1905;52.482;9.802;2024-02-23T13:22:22;98925.00;;;9.44;69.04
3780;BME280;1905;52.482;9.802;2024-02-23T13:24:52;98919.94;;;9.41;70.92
3780;BME280;1905;52.482;9.802;2024-02-23T13:27:20;98921.44;;;9.45;70.35
3780;BME280;1905;52.482;9.802;2024-02-23T13:29:49;98923.09;;;9.46;70.71
3780;BME280;1905;52.482;9.802;2024-02-23T13:32:21;98924.81;;;9.47;71.21
3780;BME280;1905;52.482;9.802;2024-02-23T13:34:49;98923.88;;;9.48;70.23
3780;BME280;1905;52.482;9.802;2024-02-23T13:37:19;98931.56;;;9.51;70.06
3780;BME280;1905;52.482;9.802;2024-02-23T13:39:47;98934.94;;;9.53;70.87
3780;BME280;1905;52.482;9.802;2024-02-23T13:42:18;98937.25;;;9.57;67.49